Time;durP1;ratioP1;P1;durP2;ratioP2;P2;SDS_P1;SDS_P2;PMS_P1;PMS_P2;Temp;Humidity;BMP_temperature;BMP_pressure;BME280_temperature;BME280_humidity;BME280_pressure;Samples;Min_cycle;Max_cycle;Signal;HPM_P1;HPM_P2
2022/10/23 00:00:07;;;;;;;2.93;1.50;;;;;;;;;;5053112;27;87001;-53
2022/10/23 00:02:35;;;;;;;2.13;1.70;;;;;;;;;;5041249;27;87919;-54
2022/10/23 00:05:04;;;;;;;1.20;1.10;;;;;;;;;;5041697;27;89023;-54
2022/10/23 00:07:32;;;;;;;4.53;1.47;;;;;;;;;;5044404;27;87080;-53
2022/10/23 00:10:02;;;;;;;3.70;1.23;;;;;;;;;;5049014;27;86924;-53
2022/10/23 00:12:30;;;;;;;2.33;1.27;;;;;;;;;;5061185;27;89142;-54
2022/10/23 00:14:58;;;;;;;1.20;1.10;;;;;;;;;;5063488;27;87579;-54
2022/10/23 00:17:27;;;;;;;2.13;1.40;;;;;;;;;;5061312;27;86943;-54
2022/10/23 00:19:55;;;;;;;1.63;1.53;;;;;;;;;;5046462;27;87002;-54
2022/10/23 00:22:23;;;;;;;1.67;0.90;;;;;;;;;;5040804;27;90035;-54
2022/10/23 00:24:51;;;;;;;1.20;1.10;;;;;;;;;;5047754;27;89521;-53
2022/10/23 00:27:21;;;;;;;2.00;1.10;;;;;;;;;;5060459;27;87016;-54
2022/10/23 00:29:49;;;;;;;3.43;1.57;;;;;;;;;;5040933;27;87142;-54
2022/10/23 00:32:17;;;;;;;2.17;1.40;;;;;;;;;;5057873;27;88320;-53
2022/10/23 00:34:46;;;;;;;1.47;1.37;;;;;;;;;;5049082;27;87197;-53
2022/10/23 00:37:14;;;;;;;1.07;0.87;;;;;;;;;;5040641;27;87052;-53
2022/10/23 00:39:42;;;;;;;1.73;1.20;;;;;;;;;;5042146;27;86175;-55
2022/10/23 00:42:11;;;;;;;1.30;1.20;;;;;;;;;;5040526;28;89209;-53
2022/10/23 00:44:58;;;;;;;1.57;1.13;;;;;;;;;;5048587;27;87066;-53
2022/10/23 00:47:28;;;;;;;1.67;1.10;;;;;;;;;;5040050;27;88015;-54
2022/10/23 00:49:56;;;;;;;1.13;0.97;;;;;;;;;;5054361;27;87182;-54
2022/10/23 00:52:24;;;;;;;1.53;1.37;;;;;;;;;;5051611;27;88099;-53
2022/10/23 00:54:52;;;;;;;1.77;1.10;;;;;;;;;;5054978;27;89041;-54
2022/10/23 00:57:21;;;;;;;1.97;1.00;;;;;;;;;;5057659;27;87025;-53
2022/10/23 00:59:49;;;;;;;1.00;0.90;;;;;;;;;;5059334;27;87307;-54
2022/10/23 01:02:18;;;;;;;1.77;1.30;;;;;;;;;;5060237;27;88316;-53
2022/10/23 01:04:48;;;;;;;3.13;1.63;;;;;;;;;;5049829;27;88968;-53
2022/10/23 01:07:17;;;;;;;1.17;0.97;;;;;;;;;;5040152;27;87170;-53
2022/10/23 01:09:46;;;;;;;3.13;1.13;;;;;;;;;;5039449;27;87048;-54
2022/10/23 01:12:16;;;;;;;5.70;1.00;;;;;;;;;;5039778;27;88892;-53
2022/10/23 01:14:45;;;;;;;1.93;1.47;;;;;;;;;;5057488;27;87214;-53
2022/10/23 01:17:14;;;;;;;2.37;1.17;;;;;;;;;;5064249;27;87096;-54
2022/10/23 01:19:45;;;;;;;1.13;1.00;;;;;;;;;;5063982;27;87287;-54
2022/10/23 01:22:18;;;;;;;3.20;1.43;;;;;;;;;;5063687;27;88987;-53
2022/10/23 01:24:46;;;;;;;1.23;1.10;;;;;;;;;;5061728;27;87900;-54
2022/10/23 01:27:21;;;;;;;0.93;0.87;;;;;;;;;;5063172;27;87024;-53
2022/10/23 01:29:50;;;;;;;1.07;1.00;;;;;;;;;;5050995;27;87762;-54
2022/10/23 01:32:20;;;;;;;1.67;0.87;;;;;;;;;;5042827;27;87875;-53
2022/10/23 01:34:49;;;;;;;3.63;1.00;;;;;;;;;;5057283;27;87581;-53
2022/10/23 01:37:20;;;;;;;2.93;1.17;;;;;;;;;;5044454;27;88105;-55
2022/10/23 01:39:49;;;;;;;1.20;1.10;;;;;;;;;;5042837;27;87070;-54
2022/10/23 01:42:18;;;;;;;0.80;0.80;;;;;;;;;;5043575;27;87508;-54
2022/10/23 01:44:47;;;;;;;1.33;1.20;;;;;;;;;;5055249;27;88899;-54
2022/10/23 01:47:16;;;;;;;3.70;1.20;;;;;;;;;;5063755;27;86911;-52
2022/10/23 01:49:45;;;;;;;4.50;1.00;;;;;;;;;;5061168;27;87041;-54
2022/10/23 01:52:13;;;;;;;1.60;1.27;;;;;;;;;;5047222;27;88842;-53
2022/10/23 01:54:43;;;;;;;1.07;0.90;;;;;;;;;;5062035;27;88687;-53
2022/10/23 01:57:11;;;;;;;1.33;1.10;;;;;;;;;;5057071;27;87156;-54
2022/10/23 01:59:40;;;;;;;1.83;0.90;;;;;;;;;;5057310;27;87199;-53
2022/10/23 02:02:10;;;;;;;1.70;1.10;;;;;;;;;;5052222;27;89771;-53
2022/10/23 02:04:39;;;;;;;1.27;1.17;;;;;;;;;;5054361;27;89713;-53
2022/10/23 02:07:07;;;;;;;1.30;1.20;;;;;;;;;;5063072;27;87040;-53
2022/10/23 02:09:35;;;;;;;1.30;1.20;;;;;;;;;;5049067;27;87173;-53
2022/10/23 02:12:05;;;;;;;2.90;0.97;;;;;;;;;;5042496;27;87857;-54
2022/10/23 02:14:36;;;;;;;0.80;0.80;;;;;;;;;;5044528;27;87879;-53
2022/10/23 02:17:06;;;;;;;2.20;0.80;;;;;;;;;;5053581;27;87046;-55
2022/10/23 02:19:37;;;;;;;1.20;1.10;;;;;;;;;;5054768;27;88189;-53
2022/10/23 02:22:06;;;;;;;1.27;1.03;;;;;;;;;;5060900;27;87812;-53
2022/10/23 02:24:35;;;;;;;1.33;1.00;;;;;;;;;;5058579;27;87375;-54
2022/10/23 02:27:04;;;;;;;1.30;0.87;;;;;;;;;;5059162;27;88077;-53
2022/10/23 02:29:33;;;;;;;0.73;0.73;;;;;;;;;;5051907;27;87210;-54
2022/10/23 02:32:02;;;;;;;0.83;0.83;;;;;;;;;;5049309;27;89237;-53
2022/10/23 02:34:30;;;;;;;2.23;1.17;;;;;;;;;;5056269;27;87955;-56
2022/10/23 02:36:59;;;;;;;2.03;0.77;;;;;;;;;;5042025;27;87085;-57
2022/10/23 02:39:28;;;;;;;0.80;0.80;;;;;;;;;;5041465;27;87279;-53
2022/10/23 02:41:56;;;;;;;0.63;0.63;;;;;;;;;;5041119;27;87895;-54
2022/10/23 02:44:26;;;;;;;0.90;0.83;;;;;;;;;;5046908;27;89469;-54
2022/10/23 02:46:57;;;;;;;1.37;1.27;;;;;;;;;;5049965;27;87134;-54
2022/10/23 02:49:25;;;;;;;0.83;0.83;;;;;;;;;;5047082;27;86964;-55
2022/10/23 02:51:55;;;;;;;1.50;1.17;;;;;;;;;;5048214;27;88782;-55
2022/10/23 02:54:29;;;;;;;1.33;0.80;;;;;;;;;;5054723;27;89248;-55
2022/10/23 02:56:59;;;;;;;1.43;1.00;;;;;;;;;;5049695;27;87716;-56
2022/10/23 02:59:29;;;;;;;2.07;1.20;;;;;;;;;;5050319;27;88242;-53
2022/10/23 03:01:59;;;;;;;1.90;1.07;;;;;;;;;;5046012;27;87972;-55
2022/10/23 03:04:27;;;;;;;1.20;1.10;;;;;;;;;;5039226;27;88903;-54
2022/10/23 03:06:55;;;;;;;0.80;0.80;;;;;;;;;;5050659;27;87017;-59
2022/10/23 03:09:23;;;;;;;0.70;0.63;;;;;;;;;;5053148;27;86364;-56
2022/10/23 03:11:53;;;;;;;1.73;0.93;;;;;;;;;;5061009;27;87213;-56
2022/10/23 03:14:21;;;;;;;1.50;1.03;;;;;;;;;;5057732;27;86980;-54
2022/10/23 03:16:50;;;;;;;1.57;0.90;;;;;;;;;;5055697;27;87852;-53
2022/10/23 03:19:18;;;;;;;0.50;0.50;;;;;;;;;;5052752;27;87891;-54
2022/10/23 03:21:46;;;;;;;2.23;1.13;;;;;;;;;;5048973;27;88853;-53
2022/10/23 03:24:14;;;;;;;0.97;0.90;;;;;;;;;;5047299;27;87536;-53
2022/10/23 03:26:43;;;;;;;1.47;1.37;;;;;;;;;;5042504;27;87659;-54
2022/10/23 03:29:12;;;;;;;0.80;0.80;;;;;;;;;;5057689;27;87094;-53
2022/10/23 03:31:41;;;;;;;1.00;0.90;;;;;;;;;;5045020;27;88019;-53
2022/10/23 03:34:10;;;;;;;1.57;0.80;;;;;;;;;;5043099;27;88505;-54
2022/10/23 03:36:38;;;;;;;0.70;0.70;;;;;;;;;;5058098;27;86928;-53
2022/10/23 03:39:06;;;;;;;0.90;0.90;;;;;;;;;;5051405;27;87035;-54
2022/10/23 03:41:35;;;;;;;1.13;0.90;;;;;;;;;;5057100;27;90125;-53
2022/10/23 03:44:03;;;;;;;0.70;0.70;;;;;;;;;;5059207;27;88762;-53
2022/10/23 03:46:38;;;;;;;1.30;0.90;;;;;;;;;;5060050;27;86923;-54
2022/10/23 03:49:06;;;;;;;1.10;0.97;;;;;;;;;;5053716;27;87162;-54
2022/10/23 03:51:35;;;;;;;2.33;0.70;;;;;;;;;;5053317;27;87078;-54
2022/10/23 03:54:03;;;;;;;0.73;0.70;;;;;;;;;;5041371;27;87635;-54
2022/10/23 03:56:31;;;;;;;1.23;1.00;;;;;;;;;;5041597;27;87040;-54
2022/10/23 03:58:59;;;;;;;0.87;0.80;;;;;;;;;;5056732;27;86251;-53
2022/10/23 04:01:28;;;;;;;0.80;0.70;;;;;;;;;;5059071;27;89114;-54
2022/10/23 04:03:57;;;;;;;1.20;1.10;;;;;;;;;;5055100;27;88830;-54
2022/10/23 04:06:26;;;;;;;1.63;0.80;;;;;;;;;;5045866;27;89307;-53
2022/10/23 04:08:54;;;;;;;1.23;1.13;;;;;;;;;;5055610;27;87075;-54
2022/10/23 04:11:22;;;;;;;0.83;0.80;;;;;;;;;;5054363;27;88057;-54
2022/10/23 04:13:51;;;;;;;0.93;0.80;;;;;;;;;;5040407;27;87910;-54
2022/10/23 04:16:19;;;;;;;2.00;1.10;;;;;;;;;;5050080;27;87095;-54
2022/10/23 04:18:47;;;;;;;1.03;0.80;;;;;;;;;;5060712;27;86981;-55
2022/10/23 04:21:17;;;;;;;1.03;0.80;;;;;;;;;;5041851;27;88060;-56
2022/10/23 04:23:45;;;;;;;1.07;0.97;;;;;;;;;;5040853;27;88571;-54
2022/10/23 04:26:14;;;;;;;1.70;1.17;;;;;;;;;;5040367;27;87162;-56
2022/10/23 04:28:42;;;;;;;1.23;1.03;;;;;;;;;;5043417;27;87124;-54
2022/10/23 04:31:10;;;;;;;1.60;1.10;;;;;;;;;;5049418;27;88699;-55
2022/10/23 04:33:39;;;;;;;3.10;0.87;;;;;;;;;;5060816;27;88614;-54
2022/10/23 04:36:07;;;;;;;0.90;0.73;;;;;;;;;;5050571;27;87111;-54
2022/10/23 04:38:37;;;;;;;1.60;1.00;;;;;;;;;;5043771;27;87961;-54
2022/10/23 04:41:05;;;;;;;0.67;0.67;;;;;;;;;;5048626;27;88068;-54
2022/10/23 04:43:33;;;;;;;5.90;0.87;;;;;;;;;;5040351;27;88682;-54
2022/10/23 04:46:02;;;;;;;0.93;0.80;;;;;;;;;;5040779;27;87232;-54
2022/10/23 04:48:30;;;;;;;1.40;0.97;;;;;;;;;;5052976;27;86340;-53
2022/10/23 04:50:59;;;;;;;2.57;0.70;;;;;;;;;;5045635;27;88117;-54
2022/10/23 04:53:27;;;;;;;1.00;0.90;;;;;;;;;;5044992;27;88619;-53
2022/10/23 04:55:57;;;;;;;3.07;0.97;;;;;;;;;;5043330;27;88042;-55
2022/10/23 04:58:25;;;;;;;0.77;0.77;;;;;;;;;;5044605;27;86956;-55
2022/10/23 05:00:54;;;;;;;0.73;0.60;;;;;;;;;;5046650;27;88071;-54
2022/10/23 05:03:22;;;;;;;0.60;0.60;;;;;;;;;;5056254;27;88929;-54
2022/10/23 05:05:52;;;;;;;0.90;0.87;;;;;;;;;;5052810;27;87121;-54
2022/10/23 05:08:20;;;;;;;1.00;0.90;;;;;;;;;;5056009;27;87082;-54
2022/10/23 05:10:49;;;;;;;1.00;0.70;;;;;;;;;;5057700;27;88276;-54
2022/10/23 05:13:19;;;;;;;1.07;0.90;;;;;;;;;;5048564;27;88673;-53
2022/10/23 05:15:47;;;;;;;0.83;0.77;;;;;;;;;;5043032;28;87106;-54
2022/10/23 05:18:17;;;;;;;0.67;0.63;;;;;;;;;;5043003;27;86982;-54
2022/10/23 05:20:46;;;;;;;2.33;0.77;;;;;;;;;;5042532;27;89882;-54
2022/10/23 05:23:14;;;;;;;1.10;0.97;;;;;;;;;;5042738;27;89638;-54
2022/10/23 05:25:42;;;;;;;1.40;1.00;;;;;;;;;;5043355;27;87049;-55
2022/10/23 05:28:10;;;;;;;0.83;0.50;;;;;;;;;;5043049;27;87081;-54
2022/10/23 05:30:40;;;;;;;0.50;0.50;;;;;;;;;;5043093;27;88152;-54
2022/10/23 05:33:08;;;;;;;0.73;0.73;;;;;;;;;;5042502;27;87567;-55
2022/10/23 05:35:36;;;;;;;3.70;0.90;;;;;;;;;;5042845;27;87092;-54
2022/10/23 05:38:05;;;;;;;0.60;0.60;;;;;;;;;;5043400;27;86456;-55
2022/10/23 05:40:33;;;;;;;0.80;0.77;;;;;;;;;;5043132;27;88049;-54
2022/10/23 05:43:01;;;;;;;0.73;0.60;;;;;;;;;;5042186;27;87756;-54
2022/10/23 05:45:30;;;;;;;0.67;0.67;;;;;;;;;;5041868;27;87974;-55
2022/10/23 05:48:00;;;;;;;0.67;0.67;;;;;;;;;;5043778;27;88433;-53
2022/10/23 05:50:48;;;;;;;0.70;0.70;;;;;;;;;;5046880;27;90015;-54
2022/10/23 05:53:16;;;;;;;0.60;0.60;;;;;;;;;;5050568;27;87927;-56
2022/10/23 05:55:44;;;;;;;0.77;0.77;;;;;;;;;;5060954;27;87048;-54
2022/10/23 05:58:13;;;;;;;0.77;0.77;;;;;;;;;;5060288;27;87663;-53
2022/10/23 06:00:41;;;;;;;2.33;0.70;;;;;;;;;;5062194;27;89169;-54
2022/10/23 06:03:10;;;;;;;1.10;0.70;;;;;;;;;;5050162;27;88971;-54
2022/10/23 06:05:39;;;;;;;1.37;0.80;;;;;;;;;;5052871;27;88864;-55
2022/10/23 06:08:12;;;;;;;2.23;1.40;;;;;;;;;;5060113;27;86977;-55
2022/10/23 06:10:40;;;;;;;1.50;0.70;;;;;;;;;;5044002;27;92630;-53
2022/10/23 06:13:08;;;;;;;0.73;0.73;;;;;;;;;;5062676;27;89561;-54
2022/10/23 06:15:38;;;;;;;0.87;0.87;;;;;;;;;;5056203;27;87151;-54
2022/10/23 06:18:07;;;;;;;1.13;0.70;;;;;;;;;;5061544;27;87022;-54
2022/10/23 06:20:37;;;;;;;1.07;0.67;;;;;;;;;;5053393;27;87762;-54
2022/10/23 06:23:05;;;;;;;1.47;0.87;;;;;;;;;;5042002;27;88974;-54
2022/10/23 06:25:34;;;;;;;0.70;0.70;;;;;;;;;;5044230;27;87072;-54
2022/10/23 06:28:02;;;;;;;0.83;0.80;;;;;;;;;;5052115;27;87162;-54
2022/10/23 06:30:30;;;;;;;1.87;1.00;;;;;;;;;;5041958;27;87001;-54
2022/10/23 06:32:58;;;;;;;2.17;0.77;;;;;;;;;;5046147;27;87612;-54
2022/10/23 06:35:32;;;;;;;1.63;1.00;;;;;;;;;;5043964;27;87945;-53
2022/10/23 06:38:02;;;;;;;1.23;0.70;;;;;;;;;;5057595;27;87504;-54
2022/10/23 06:40:30;;;;;;;2.00;0.83;;;;;;;;;;5043188;27;89090;-54
2022/10/23 06:42:59;;;;;;;1.10;1.00;;;;;;;;;;5046248;27;87956;-53
2022/10/23 06:45:28;;;;;;;0.50;0.50;;;;;;;;;;5054369;27;87048;-53
2022/10/23 06:47:57;;;;;;;0.70;0.70;;;;;;;;;;5042246;27;86991;-55
2022/10/23 06:50:25;;;;;;;0.90;0.90;;;;;;;;;;5045536;27;87045;-54
2022/10/23 06:52:53;;;;;;;0.60;0.60;;;;;;;;;;5055693;27;87570;-54
2022/10/23 06:55:23;;;;;;;0.30;0.30;;;;;;;;;;5053426;27;87162;-54
2022/10/23 06:57:51;;;;;;;1.87;0.80;;;;;;;;;;5046560;27;87115;-53
2022/10/23 07:00:20;;;;;;;0.80;0.80;;;;;;;;;;5054491;27;90108;-54
2022/10/23 07:02:48;;;;;;;0.70;0.50;;;;;;;;;;5048281;27;88511;-54
2022/10/23 07:05:17;;;;;;;1.15;0.80;;;;;;;;;;5046560;27;87758;-53
2022/10/23 07:07:45;;;;;;;1.27;0.70;;;;;;;;;;5050580;27;87258;-53
2022/10/23 07:10:14;;;;;;;1.10;0.73;;;;;;;;;;5043696;27;88921;-53
2022/10/23 07:12:44;;;;;;;1.90;0.90;;;;;;;;;;5057706;27;87260;-52
2022/10/23 07:15:12;;;;;;;1.37;0.90;;;;;;;;;;5055804;27;87071;-54
2022/10/23 07:17:41;;;;;;;0.87;0.70;;;;;;;;;;5045403;27;86494;-52
2022/10/23 07:20:09;;;;;;;0.60;0.60;;;;;;;;;;5053193;27;88137;-54
2022/10/23 07:22:37;;;;;;;1.23;0.63;;;;;;;;;;5049439;27;87552;-53
2022/10/23 07:25:06;;;;;;;1.53;0.70;;;;;;;;;;5060831;27;89075;-54
2022/10/23 07:27:36;;;;;;;1.07;0.97;;;;;;;;;;5060548;27;87398;-54
2022/10/23 07:30:07;;;;;;;1.20;0.90;;;;;;;;;;5052394;27;87847;-53
2022/10/23 07:32:35;;;;;;;2.80;0.90;;;;;;;;;;5048312;27;87611;-52
2022/10/23 07:35:03;;;;;;;0.60;0.50;;;;;;;;;;5045138;27;86955;-52
2022/10/23 07:37:32;;;;;;;1.00;0.90;;;;;;;;;;5040365;27;87149;-53
2022/10/23 07:40:00;;;;;;;1.70;0.90;;;;;;;;;;5040366;27;87024;-53
2022/10/23 07:42:28;;;;;;;1.63;1.00;;;;;;;;;;5041295;27;88859;-53
2022/10/23 07:44:57;;;;;;;0.93;0.80;;;;;;;;;;5040502;27;87042;-53
2022/10/23 07:47:27;;;;;;;0.70;0.70;;;;;;;;;;5046379;27;87058;-53
2022/10/23 07:49:55;;;;;;;1.67;0.70;;;;;;;;;;5052940;27;88843;-52
2022/10/23 07:52:24;;;;;;;0.50;0.47;;;;;;;;;;5042387;27;88765;-53
2022/10/23 07:54:52;;;;;;;1.10;0.90;;;;;;;;;;5049017;27;87072;-51
2022/10/23 07:57:20;;;;;;;0.80;0.80;;;;;;;;;;5052493;27;88282;-52
2022/10/23 07:59:49;;;;;;;0.70;0.70;;;;;;;;;;5048283;27;88033;-52
2022/10/23 08:02:17;;;;;;;0.83;0.80;;;;;;;;;;5040504;27;88623;-52
2022/10/23 08:04:48;;;;;;;0.90;0.67;;;;;;;;;;5050077;27;87186;-52
2022/10/23 08:07:17;;;;;;;0.73;0.73;;;;;;;;;;5052835;27;86367;-52
2022/10/23 08:09:45;;;;;;;0.70;0.70;;;;;;;;;;5040367;27;88120;-52
2022/10/23 08:12:14;;;;;;;0.90;0.87;;;;;;;;;;5056301;27;87925;-51
2022/10/23 08:14:42;;;;;;;3.43;0.73;;;;;;;;;;5060718;27;87975;-52
2022/10/23 08:17:10;;;;;;;1.80;0.67;;;;;;;;;;5061316;27;87020;-52
2022/10/23 08:19:39;;;;;;;1.00;0.90;;;;;;;;;;5061619;27;89199;-52
2022/10/23 08:22:08;;;;;;;0.83;0.63;;;;;;;;;;5060628;27;87007;-52
2022/10/23 08:24:36;;;;;;;3.00;1.00;;;;;;;;;;5044035;27;87005;-52
2022/10/23 08:27:05;;;;;;;2.53;0.80;;;;;;;;;;5040635;27;87067;-52
2022/10/23 08:29:33;;;;;;;4.67;0.90;;;;;;;;;;5058372;27;88140;-52
2022/10/23 08:32:01;;;;;;;1.00;0.90;;;;;;;;;;5061399;27;87707;-52
2022/10/23 08:34:30;;;;;;;1.27;0.93;;;;;;;;;;5060276;27;87136;-52
2022/10/23 08:36:58;;;;;;;0.80;0.70;;;;;;;;;;5060781;27;86902;-52
2022/10/23 08:39:28;;;;;;;1.10;1.00;;;;;;;;;;5060206;27;88044;-52
2022/10/23 08:41:56;;;;;;;1.27;1.17;;;;;;;;;;5060059;27;88236;-52
2022/10/23 08:44:26;;;;;;;1.67;0.63;;;;;;;;;;5061138;27;87108;-52
2022/10/23 08:46:58;;;;;;;1.53;1.00;;;;;;;;;;5061148;27;86992;-52
2022/10/23 08:49:30;;;;;;;1.97;1.37;;;;;;;;;;5060817;27;89618;-56
2022/10/23 08:51:58;;;;;;;0.60;0.60;;;;;;;;;;5059784;27;88843;-52
2022/10/23 08:54:29;;;;;;;1.20;0.87;;;;;;;;;;5060534;27;87056;-52
2022/10/23 08:56:58;;;;;;;1.17;0.93;;;;;;;;;;5060213;27;86342;-52
2022/10/23 08:59:28;;;;;;;1.37;0.80;;;;;;;;;;5060450;27;88125;-52
2022/10/23 09:01:56;;;;;;;0.60;0.60;;;;;;;;;;5060476;27;88861;-52
2022/10/23 09:04:25;;;;;;;1.13;1.03;;;;;;;;;;5060569;27;87964;-52
2022/10/23 09:06:55;;;;;;;3.87;0.87;;;;;;;;;;5060596;27;86990;-52
2022/10/23 09:09:38;;;;;;;0.53;0.53;;;;;;;;;;5060197;27;88260;-52
2022/10/23 09:12:08;;;;;;;1.60;0.97;;;;;;;;;;5060181;27;89130;-52
2022/10/23 09:14:42;;;;;;;3.67;0.90;;;;;;;;;;5060457;27;87012;-52
2022/10/23 09:17:13;;;;;;;0.83;0.80;;;;;;;;;;5060729;27;86924;-52
2022/10/23 09:19:47;;;;;;;1.90;0.77;;;;;;;;;;5060210;27;87497;-52
2022/10/23 09:22:16;;;;;;;1.60;0.80;;;;;;;;;;5060218;27;87739;-52
2022/10/23 09:24:45;;;;;;;3.50;1.00;;;;;;;;;;5060339;27;86954;-52
2022/10/23 09:27:20;;;;;;;1.23;1.03;;;;;;;;;;5060724;27;87676;-52
2022/10/23 09:29:49;;;;;;;3.60;0.60;;;;;;;;;;5059280;27;89087;-53
2022/10/23 09:32:17;;;;;;;0.97;0.97;;;;;;;;;;5060091;27;88885;-53
2022/10/23 09:34:52;;;;;;;0.50;0.50;;;;;;;;;;5062649;27;87128;-53
2022/10/23 09:37:22;;;;;;;1.47;1.10;;;;;;;;;;5063806;27;86968;-52
2022/10/23 09:40:01;;;;;;;1.47;0.87;;;;;;;;;;5063325;27;88252;-53
2022/10/23 09:42:29;;;;;;;1.07;0.83;;;;;;;;;;5063733;27;87582;-53
2022/10/23 09:44:58;;;;;;;0.70;0.70;;;;;;;;;;5063967;27;86960;-53
2022/10/23 09:47:27;;;;;;;1.27;0.50;;;;;;;;;;5064782;27;86993;-53
2022/10/23 09:49:57;;;;;;;1.07;1.07;;;;;;;;;;5063519;27;88182;-53
2022/10/23 09:52:26;;;;;;;1.17;1.07;;;;;;;;;;5063709;27;87752;-52
2022/10/23 09:54:56;;;;;;;1.03;0.90;;;;;;;;;;5063054;27;88431;-52
2022/10/23 09:57:25;;;;;;;0.70;0.60;;;;;;;;;;5063654;27;87190;-52
2022/10/23 09:59:53;;;;;;;2.67;1.20;;;;;;;;;;5063416;27;88960;-53
2022/10/23 10:02:27;;;;;;;2.00;1.20;;;;;;;;;;5063303;27;87471;-52
2022/10/23 10:04:55;;;;;;;2.70;1.10;;;;;;;;;;5063636;27;86907;-53
2022/10/23 10:07:24;;;;;;;1.50;1.40;;;;;;;;;;5063142;27;87059;-53
2022/10/23 10:09:53;;;;;;;2.47;1.67;;;;;;;;;;5063002;27;89040;-53
2022/10/23 10:12:38;;;;;;;1.03;0.83;;;;;;;;;;5063336;27;88793;-52
2022/10/23 10:15:13;;;;;;;2.50;0.80;;;;;;;;;;5063727;27;86924;-53
2022/10/23 10:17:43;;;;;;;1.60;1.20;;;;;;;;;;5063556;27;87027;-52
2022/10/23 10:20:15;;;;;;;1.30;1.20;;;;;;;;;;5062448;27;88842;-53
2022/10/23 10:22:46;;;;;;;1.37;1.00;;;;;;;;;;5062659;27;88625;-52
2022/10/23 10:25:16;;;;;;;2.13;1.90;;;;;;;;;;5063130;27;87003;-52
2022/10/23 10:27:46;;;;;;;1.87;0.93;;;;;;;;;;5063065;27;87077;-52
2022/10/23 10:30:16;;;;;;;1.63;1.27;;;;;;;;;;5062678;27;88924;-53
2022/10/23 10:32:46;;;;;;;1.10;1.00;;;;;;;;;;5062217;27;87924;-53
2022/10/23 10:35:20;;;;;;;1.70;1.13;;;;;;;;;;5062279;27;86940;-53
2022/10/23 10:37:52;;;;;;;4.27;1.07;;;;;;;;;;5063281;27;87012;-53
2022/10/23 10:40:23;;;;;;;0.90;0.77;;;;;;;;;;5062352;27;88377;-52
2022/10/23 10:43:05;;;;;;;1.37;1.20;;;;;;;;;;5062697;27;87659;-53
2022/10/23 10:45:38;;;;;;;1.53;1.00;;;;;;;;;;5062296;27;87884;-53
2022/10/23 10:48:20;;;;;;;1.07;1.00;;;;;;;;;;5062859;27;87055;-53
2022/10/23 10:50:50;;;;;;;1.13;0.80;;;;;;;;;;5062571;27;88982;-53
2022/10/23 10:53:20;;;;;;;1.10;0.77;;;;;;;;;;5062402;27;87624;-52
2022/10/23 10:55:49;;;;;;;0.80;0.80;;;;;;;;;;5062451;27;87219;-53
2022/10/23 10:58:18;;;;;;;1.60;1.13;;;;;;;;;;5062486;27;86995;-52
2022/10/23 11:00:49;;;;;;;1.10;0.90;;;;;;;;;;5061704;27;88103;-53
2022/10/23 11:03:22;;;;;;;1.03;0.90;;;;;;;;;;5062583;27;89425;-53
2022/10/23 11:05:50;;;;;;;1.03;0.90;;;;;;;;;;5062760;27;87011;-53
2022/10/23 11:08:21;;;;;;;1.23;0.97;;;;;;;;;;5062395;27;86958;-52
2022/10/23 11:10:50;;;;;;;4.80;1.30;;;;;;;;;;5061643;27;89795;-52
2022/10/23 11:13:23;;;;;;;1.37;0.93;;;;;;;;;;5062303;27;90077;-52
2022/10/23 11:15:53;;;;;;;0.80;0.80;;;;;;;;;;5062415;27;87002;-53
2022/10/23 11:18:23;;;;;;;1.17;1.07;;;;;;;;;;5062241;27;87025;-52
2022/10/23 11:20:56;;;;;;;2.43;0.93;;;;;;;;;;5062371;27;87974;-52
2022/10/23 11:23:42;;;;;;;3.37;1.83;;;;;;;;;;5062266;27;87454;-52
2022/10/23 11:26:13;;;;;;;0.60;0.60;;;;;;;;;;5040413;27;87146;-52
2022/10/23 11:28:52;;;;;;;2.63;1.20;;;;;;;;;;5062480;27;86367;-53
2022/10/23 11:31:25;;;;;;;1.83;1.20;;;;;;;;;;5061948;27;87800;-52
2022/10/23 11:33:56;;;;;;;1.43;1.33;;;;;;;;;;5062096;27;88859;-52
2022/10/23 11:36:33;;;;;;;4.67;1.07;;;;;;;;;;5061702;27;88037;-52
2022/10/23 11:39:07;;;;;;;1.30;0.90;;;;;;;;;;5060835;27;86916;-52
2022/10/23 11:41:35;;;;;;;2.20;0.90;;;;;;;;;;5061564;27;87909;-52
2022/10/23 11:44:04;;;;;;;1.20;1.07;;;;;;;;;;5062126;27;88846;-52
2022/10/23 11:46:35;;;;;;;0.77;0.77;;;;;;;;;;5061742;27;87036;-52
2022/10/23 11:49:04;;;;;;;1.47;0.90;;;;;;;;;;5062280;27;87103;-52
2022/10/23 11:51:33;;;;;;;0.73;0.63;;;;;;;;;;5061812;27;88064;-53
2022/10/23 11:54:26;;;;;;;0.70;0.60;;;;;;;;;;5062181;27;87793;-53
2022/10/23 11:56:55;;;;;;;1.43;0.90;;;;;;;;;;5060533;27;87003;-53
2022/10/23 11:59:25;;;;;;;0.80;0.70;;;;;;;;;;5061569;27;87082;-53
2022/10/23 12:01:55;;;;;;;1.10;1.00;;;;;;;;;;5060562;27;90200;-53
2022/10/23 12:04:24;;;;;;;2.53;0.80;;;;;;;;;;5061461;27;88763;-53
2022/10/23 12:06:53;;;;;;;2.13;1.10;;;;;;;;;;5061487;27;87072;-53
2022/10/23 12:09:23;;;;;;;4.23;0.60;;;;;;;;;;5061384;27;86891;-53
2022/10/23 12:12:02;;;;;;;0.90;0.90;;;;;;;;;;5061469;27;88961;-53
2022/10/23 12:14:32;;;;;;;0.80;0.80;;;;;;;;;;5060859;27;87648;-53
2022/10/23 12:17:01;;;;;;;0.77;0.77;;;;;;;;;;5061268;27;87039;-53
2022/10/23 12:19:30;;;;;;;1.53;1.07;;;;;;;;;;5061816;27;86376;-53
2022/10/23 12:21:59;;;;;;;1.13;0.80;;;;;;;;;;5061637;27;88089;-53
2022/10/23 12:24:30;;;;;;;1.00;0.80;;;;;;;;;;5060637;27;87766;-53
2022/10/23 12:27:02;;;;;;;1.17;1.07;;;;;;;;;;5060169;27;88887;-53
2022/10/23 12:29:39;;;;;;;0.73;0.63;;;;;;;;;;5060769;27;87016;-52
2022/10/23 12:32:18;;;;;;;1.07;0.90;;;;;;;;;;5060256;27;88240;-53
2022/10/23 12:34:47;;;;;;;2.53;1.20;;;;;;;;;;5060523;27;87612;-53
2022/10/23 12:37:21;;;;;;;0.93;0.90;;;;;;;;;;5060543;27;87259;-52
2022/10/23 12:39:55;;;;;;;1.53;0.60;;;;;;;;;;5060958;27;87074;-52
2022/10/23 12:42:23;;;;;;;1.30;1.20;;;;;;;;;;5061212;27;87850;-53
2022/10/23 12:44:59;;;;;;;1.20;0.70;;;;;;;;;;5061440;27;87924;-53
2022/10/23 12:47:28;;;;;;;0.73;0.60;;;;;;;;;;5061128;27;86930;-52
2022/10/23 12:49:57;;;;;;;0.90;0.80;;;;;;;;;;5060843;27;86994;-53
2022/10/23 12:52:25;;;;;;;0.63;0.60;;;;;;;;;;5060412;27;90083;-53
2022/10/23 12:54:53;;;;;;;1.10;1.00;;;;;;;;;;5060623;27;89710;-53
2022/10/23 12:57:22;;;;;;;1.37;0.90;;;;;;;;;;5060890;27;87108;-53
2022/10/23 12:59:51;;;;;;;0.60;0.60;;;;;;;;;;5060981;27;87083;-53
2022/10/23 13:02:23;;;;;;;1.37;1.10;;;;;;;;;;5060762;27;88087;-53
2022/10/23 13:04:53;;;;;;;1.40;0.80;;;;;;;;;;5059786;27;88185;-53
2022/10/23 13:07:23;;;;;;;0.97;0.70;;;;;;;;;;5061695;27;87112;-53
2022/10/23 13:09:51;;;;;;;0.73;0.70;;;;;;;;;;5064414;27;86370;-53
2022/10/23 13:12:21;;;;;;;1.20;1.10;;;;;;;;;;5063752;27;87113;-53
2022/10/23 13:14:55;;;;;;;1.23;0.80;;;;;;;;;;5064119;27;87109;-52
2022/10/23 13:17:33;;;;;;;3.77;0.93;;;;;;;;;;5063650;27;88012;-54
2022/10/23 13:20:10;;;;;;;1.20;1.10;;;;;;;;;;5064483;27;87126;-53
2022/10/23 13:22:40;;;;;;;1.00;0.67;;;;;;;;;;5064173;27;89181;-53
2022/10/23 13:25:22;;;;;;;0.70;0.70;;;;;;;;;;5064058;27;88817;-54
2022/10/23 13:27:50;;;;;;;0.60;0.60;;;;;;;;;;5063703;27;87120;-53
2022/10/23 13:30:28;;;;;;;0.80;0.80;;;;;;;;;;5063815;27;87048;-53
2022/10/23 13:32:57;;;;;;;2.80;1.17;;;;;;;;;;5063483;27;88117;-53
2022/10/23 13:35:26;;;;;;;1.53;1.03;;;;;;;;;;5063619;27;88884;-52
2022/10/23 13:37:55;;;;;;;1.03;0.97;;;;;;;;;;5063204;27;87025;-52
2022/10/23 13:40:24;;;;;;;0.77;0.77;;;;;;;;;;5064038;27;86939;-52
2022/10/23 13:42:53;;;;;;;1.13;0.70;;;;;;;;;;5063269;27;89070;-52
2022/10/23 13:45:21;;;;;;;1.33;0.80;;;;;;;;;;5063790;27;88856;-52
2022/10/23 13:47:50;;;;;;;0.80;0.80;;;;;;;;;;5064188;27;87056;-52
2022/10/23 13:50:18;;;;;;;1.67;0.70;;;;;;;;;;5063529;27;87103;-52
2022/10/23 13:52:48;;;;;;;2.27;1.07;;;;;;;;;;5063293;27;88215;-52
2022/10/23 13:55:18;;;;;;;0.80;0.80;;;;;;;;;;5063636;27;87780;-52
2022/10/23 13:57:46;;;;;;;0.73;0.67;;;;;;;;;;5063211;27;87705;-52
2022/10/23 14:00:15;;;;;;;1.20;0.90;;;;;;;;;;5063565;27;86372;-52
2022/10/23 14:02:43;;;;;;;0.67;0.67;;;;;;;;;;5063187;27;87864;-52
2022/10/23 14:05:12;;;;;;;0.80;0.63;;;;;;;;;;5063264;27;88292;-52
2022/10/23 14:07:40;;;;;;;1.90;1.13;;;;;;;;;;5062923;27;87996;-52
2022/10/23 14:10:10;;;;;;;1.63;0.57;;;;;;;;;;5062838;27;87098;-52
2022/10/23 14:12:40;;;;;;;1.30;0.83;;;;;;;;;;5063037;27;88183;-52
2022/10/23 14:15:10;;;;;;;1.80;0.70;;;;;;;;;;5063047;27;87769;-52
2022/10/23 14:17:38;;;;;;;1.00;0.63;;;;;;;;;;5063292;27;86919;-52
2022/10/23 14:20:07;;;;;;;1.10;0.90;;;;;;;;;;5062912;27;87249;-52
2022/10/23 14:22:35;;;;;;;1.30;0.80;;;;;;;;;;5063085;27;87693;-53
2022/10/23 14:25:03;;;;;;;0.70;0.70;;;;;;;;;;5063539;27;87693;-52
2022/10/23 14:27:33;;;;;;;1.37;0.67;;;;;;;;;;5063056;27;87073;-52
2022/10/23 14:30:02;;;;;;;0.60;0.60;;;;;;;;;;5062986;27;87129;-52
2022/10/23 14:32:30;;;;;;;0.50;0.50;;;;;;;;;;5061959;27;89177;-52
2022/10/23 14:35:02;;;;;;;0.60;0.50;;;;;;;;;;5062203;27;89893;-52
2022/10/23 14:37:30;;;;;;;0.70;0.70;;;;;;;;;;5062906;27;86893;-52
2022/10/23 14:39:59;;;;;;;0.60;0.60;;;;;;;;;;5062337;27;87024;-52
2022/10/23 14:42:32;;;;;;;1.60;0.80;;;;;;;;;;5062353;27;88083;-52
2022/10/23 14:45:02;;;;;;;1.07;0.70;;;;;;;;;;5062602;27;88876;-52
2022/10/23 14:47:31;;;;;;;1.17;0.70;;;;;;;;;;5062757;27;87022;-52
2022/10/23 14:50:00;;;;;;;0.43;0.43;;;;;;;;;;5063443;27;86305;-52
2022/10/23 14:52:28;;;;;;;1.07;0.97;;;;;;;;;;5062584;27;88160;-52
2022/10/23 14:54:56;;;;;;;0.70;0.70;;;;;;;;;;5062514;27;88674;-53
2022/10/23 14:57:25;;;;;;;0.80;0.80;;;;;;;;;;5061960;27;88078;-52